Bewolking Meer informatie Parkstad Weather Satellite


Neerslagradar Meer informatie Parkstad Rain Snow Radar


Onweersbuien Meer informatie Parkstad Lighntning


24/7 Weercamera Meer informatie Parkstad Weathercam


Natuurbrandrisico
CBI






Het weer levert geen direct gevaar op in Parkstad.    Er zijn geen waarschuwingen afgegeven voor Parkstad (045)

METAR rapporten vliegvelden

   
EHBK - Beek Nederland
Gewijzigd: 16-12-2019 10:55
Licht bewolkt  
Licht bewolkt  
   Wind: ZZW 20.4 km/h
Wind: ZZW 20.4 km/h
Temperatuur: 9°C
Voelt als: 6°C
Dauwpunt: 7°C
Vochtigheid: 87%
Barometer: 1006 hPa
Satelliet beelden: Licht bewolkt
Zicht: meer dan 10 km
Bewolking: Licht bewolkt 1433 m
EHBK 160955Z AUTO 20011KT 9999 FEW047 09/07 Q1006 NOSIG
EHBK - Maastricht Nederland
Gewijzigd: 16-12-2019 10:55
Licht bewolkt  
Licht bewolkt  
   Wind: ZZW 20.4 km/h
Wind: ZZW 20.4 km/h
Temperatuur: 9°C
Voelt als: 6°C
Dauwpunt: 7°C
Vochtigheid: 87%
Barometer: 1006 hPa
Satelliet beelden: Licht bewolkt
Zicht: meer dan 10 km
Bewolking: Licht bewolkt 1433 m
EHBK 160955Z AUTO 20011KT 9999 FEW047 09/07 Q1006 NOSIG
EBLG - Liège België
Gewijzigd: 16-12-2019 11:20
Wat regen mogelijk, Grotendeels bewolkt  
Wat regen mogelijk, Grotendeels bewolkt  
   Wind: Zuiden 14.8 km/h
Wind: Zuiden 14.8 km/h
Temperatuur: 8°C
Voelt als: 6°C
Dauwpunt: 7°C
Vochtigheid: 93%
Barometer: 1006 hPa
Satelliet beelden: Grotendeels bewolkt
Zicht: meer dan 10 km
Bewolking: Grotendeels bewolkt 1219 m
EBLG 161020Z 19008KT 9999 -RA BKN040 08/07 Q1006 NOSIG
EDDK - Köln/Bonn Duitsland
Gewijzigd: 16-12-2019 11:20
Wat regen mogelijk, Grotendeels bewolkt  
Wat regen mogelijk, Grotendeels bewolkt  
   Wind: Oosten 5.6 km/h
Wind: Oosten 5.6 km/h
Temperatuur: 8°C
Voelt als: 7°C
Dauwpunt: 8°C
Vochtigheid: 100%
Barometer: 1007 hPa
Satelliet beelden: Grotendeels bewolkt
Zicht: meer dan 10 km
Bewolking: Licht bewolkt 549 m,
Grotendeels bewolkt 1219 m
EDDK 161020Z 08003KT 9999 -RA FEW018 BKN040 08/08 Q1007 RERA NOSIG
EDDL - Düsseldorf Duitsland
Gewijzigd: 16-12-2019 11:20
Wat regen mogelijk, Licht bewolkt  
Wat regen mogelijk, Licht bewolkt  
   Wind: ZZO 13 km/h
Wind: ZZO 13 km/h
Temperatuur: 10°C
Voelt als: 8°C
Dauwpunt: 7°C
Vochtigheid: 82%
Barometer: 1006 hPa
Satelliet beelden: Licht bewolkt
Zicht: meer dan 10 km
Bewolking: Licht bewolkt 457 m
EDDL 161020Z 16007KT 9999 -RA FEW015 10/07 Q1006 TEMPO RA
EHEH - Eindhoven Nederland
Gewijzigd: 16-12-2019 11:25
Grotendeels bewolkt  
Grotendeels bewolkt  
   Wind: Zuiden 9.3 km/h
Wind: Zuiden 9.3 km/h
Temperatuur: 8°C
Voelt als: 7°C
Dauwpunt: 6°C
Vochtigheid: 87%
Barometer: 1005 hPa
Satelliet beelden: Grotendeels bewolkt
Zicht: meer dan 10 km
Bewolking: Licht bewolkt 1402 m,
Gedeeltelijk bewolkt 1585 m,
Grotendeels bewolkt 2164 m
EHEH 161025Z AUTO 19005KT 130V230 9999 FEW046 SCT052 BKN071 08/06 Q1005 BLU 18010KT 9999 -RA FEW020 SCT060 OVC080
ELLX - Luxemburg Luxemburg
Gewijzigd: 16-12-2019 11:20
Grotendeels bewolkt  
Grotendeels bewolkt  
   Wind: ZZO 9.3 km/h
Wind: ZZO 9.3 km/h
Temperatuur: 8°C
Voelt als: 7°C
Dauwpunt: 8°C
Vochtigheid: 100%
Barometer: 1007 hPa
Satelliet beelden: Grotendeels bewolkt
Zicht: 7 km
Bewolking: Licht bewolkt 152 m,
Gedeeltelijk bewolkt 762 m,
Grotendeels bewolkt 1829 m
ELLX 161020Z 15005KT 7000 FEW005 SCT025 BKN060 08/08 Q1007 NOSIG
EGLL - London England
Gewijzigd: 16-12-2019 11:20
Helder  
Helder  
   Wind: Zuiden 14.8 km/h
Wind: Zuiden 14.8 km/h
Temperatuur: 7°C
Voelt als: 4°C
Dauwpunt: 6°C
Vochtigheid: 93%
Barometer: 1001 hPa
Satelliet beelden: Helder
Zicht: meer dan 10 km
Bewolking: Helder
EGLL 161020Z AUTO 19008KT 160V240 9999 NCD 07/06 Q1001 NOSIG
EBAW - Antwerpen België
Gewijzigd: 16-12-2019 11:20
Licht bewolkt  
Licht bewolkt  
   Wind: ZZW 11.1 km/h
Wind: ZZW 11.1 km/h
Temperatuur: 9°C
Voelt als: 7°C
Dauwpunt: 7°C
Vochtigheid: 87%
Barometer: 1005 hPa
Satelliet beelden: Licht bewolkt
Zicht: meer dan 10 km
Bewolking: Licht bewolkt 610 m
EBAW 161020Z 20006KT 170V240 9999 FEW020 09/07 Q1005 NOSIG
EBOS - Oostende België
Gewijzigd: 16-12-2019 11:20
Helder  
Helder  
   Wind: Zuiden 18.5 km/h
Wind: Zuiden 18.5 km/h
Temperatuur: 8°C
Voelt als: 5°C
Dauwpunt: 6°C
Vochtigheid: 87%
Barometer: 1004 hPa
Zicht: meer dan 10 km
Bewolking: Helder
EBOS 161020Z 18010KT CAVOK 08/06 Q1004 NOSIG
LEAL - La Nucia Spanje
Gewijzigd: 16-12-2019 11:00
Grotendeels bewolkt  
Grotendeels bewolkt  
   Wind: varieert 9.3 km/h
Wind: varieert 9.3 km/h
Temperatuur: 14°C
Dauwpunt: 10°C
Vochtigheid: 77%
Barometer: 1009 hPa
Satelliet beelden: Grotendeels bewolkt
Zicht: meer dan 10 km
Bewolking: Grotendeels bewolkt 488 m
LEAL 161000Z VRB05KT 9999 BKN016 14/10 Q1009 NOSIG
TNCA - Oranjestad Aruba
Gewijzigd: 16-12-2019 11:00
Gedeeltelijk bewolkt  
Gedeeltelijk bewolkt  
   Wind: Oosten 29.6 km/h
Wind: Oosten 29.6 km/h
Temperatuur: 28°C
Gevoelstemperatuur: 31°C
Dauwpunt: 23°C
Vochtigheid: 74%
Barometer: 1012 hPa
Satelliet beelden: Gedeeltelijk bewolkt
Zicht: meer dan 10 km
Bewolking: Gedeeltelijk bewolkt 549 m
TNCA 161000Z 09016KT 9999 SCT018 28/23 Q1012 NOSIG
TNCC - Willemstad Curacao
Gewijzigd: 16-12-2019 11:00
Gedeeltelijk bewolkt  
Gedeeltelijk bewolkt  
   Wind: OZO 24.1 km/h
Wind: OZO 24.1 km/h
Temperatuur: 27°C
Gevoelstemperatuur: 29°C
Dauwpunt: 23°C
Vochtigheid: 79%
Barometer: 1012 hPa
Satelliet beelden: Gedeeltelijk bewolkt
Zicht: meer dan 10 km
Bewolking: Gedeeltelijk bewolkt 579 m
TNCC 161000Z 12013KT 9999 SCT019 27/23 Q1012 TEMPO 09015G26KT 5000 SHRA BKN014TCU
MTPP - Port au Prince Haitië
Gewijzigd: 16-12-2019 10:59
  
  
   Wind: OZO 16.7 km/h
Wind: OZO 16.7 km/h
Temperatuur: 26°C
Dauwpunt: 22°C
Vochtigheid: 79%
Barometer: 1014 hPa
Zicht: 8 km
MTPP 160959Z AUTO 12009KT 8000 ////// 26/22 Q1014 A2997 NOSIG
ENVA - Trondheim Noorwegen
Gewijzigd: 16-12-2019 11:20
Helder  
Helder  
   Wind: OZO 9.3 km/h
Wind: OZO 9.3 km/h
Temperatuur: -1°C
Voelt als: -4°C
Dauwpunt: -3°C
Vochtigheid: 86%
Barometer: 991 hPa
Zicht: meer dan 10 km
Bewolking: Helder
ENVA 161020Z 11005KT CAVOK M01/M03 Q0991 NOSIG RMK WIND 670FT 15009KT
ENBO - Bodø Noorwegen
Gewijzigd: 16-12-2019 11:20
Helder  
Helder  
   Wind: Oosten 24.1 km/h
Wind: Oosten 24.1 km/h
Temperatuur: 1°C
Voelt als: -4°C
Dauwpunt: -4°C
Vochtigheid: 70%
Barometer: 992 hPa
Zicht: meer dan 10 km
Bewolking: Helder
ENBO 161020Z 08013KT CAVOK 01/M04 Q0992 NOSIG
ETNG - Geilenkirchen Duitsland
Gewijzigd: 16-12-2019 10:50
Wat regen mogelijk, Bewolking  
Wat regen mogelijk, Bewolking  
   Wind: Zuiden 9.3 km/h
Wind: Zuiden 9.3 km/h
Temperatuur: 10°C
Voelt als: 9°C
Dauwpunt: 6°C
Vochtigheid: 76%
Barometer: 1006 hPa
Satelliet beelden: Bewolking
Zicht: meer dan 10 km
Bewolking: Gedeeltelijk bewolkt 1219 m,
Bewolking 2134 m
ETNG 160950Z 19005KT 9999 -RA SCT040 OVC070 10/06 Q1006 NOSIG
 

Script ontwikkeld door  Saratoga-weather.org Aangepast voor de template door  Weerstation Leuven

U vindt ons ook hier:

Het Weer Aktueel

WOW Nederland KNMI

Vereniging voor Weerkunde en Klimatologie

UK Met Office Weather Observation Website (WOW)

WeatherCloud

Weather Underground

Awekas

Weatherlink IP

HAMweather, WeatherForYou, PWS Weather

Citizen Weather Observer Program (CWOP)

Apparatuur in gebruik:

Hardwareleverancier
Weerhuisje

Weerstation
Vantage Pro2+ UV

Weercomputer's
alix3d2 & wl330n

Weerprogramma's
Smartbedded

Satelliet NOAA's
WRX137 & KX137

Satelliet Eumetsat
Ayecka SR1 & Triax

Bliksemdetectie
Boltek StormTracker

Webleverancier
F-Service

Weerhuisje

Vantage Pro2+ UV

alix3d2 & wl330n

Smartbedded

WRX137 & KX137

Ayecka SR1 & Triax

Boltek StormTracker

F-Service